sensor_id;sensor_type;location;lat;lon;timestamp;pressure;altitude;pressure_sealevel;temperature;humidity
46682;BME280;34101;53.430;-2.224;2023-04-28T00:01:45;100389.62;;;9.66;75.08
46682;BME280;34101;53.430;-2.224;2023-04-28T00:04:13;100385.85;;;9.79;75.08
46682;BME280;34101;53.430;-2.224;2023-04-28T00:06:40;100387.53;;;9.60;75.30
46682;BME280;34101;53.430;-2.224;2023-04-28T00:09:07;100385.53;;;9.79;74.85
46682;BME280;34101;53.430;-2.224;2023-04-28T00:11:35;100384.02;;;9.85;74.78
46682;BME280;34101;53.430;-2.224;2023-04-28T00:14:03;100380.98;;;9.84;74.44
46682;BME280;34101;53.430;-2.224;2023-04-28T00:16:30;100379.18;;;9.89;74.21
46682;BME280;34101;53.430;-2.224;2023-04-28T00:18:57;100373.41;;;10.00;74.01
46682;BME280;34101;53.430;-2.224;2023-04-28T00:21:25;100375.88;;;9.97;73.85
46682;BME280;34101;53.430;-2.224;2023-04-28T00:23:52;100371.96;;;10.05;73.72
46682;BME280;34101;53.430;-2.224;2023-04-28T00:26:20;100369.69;;;10.08;73.43
46682;BME280;34101;53.430;-2.224;2023-04-28T00:28:47;100363.38;;;10.11;73.20
46682;BME280;34101;53.430;-2.224;2023-04-28T00:31:15;100359.17;;;9.89;73.43
46682;BME280;34101;53.430;-2.224;2023-04-28T00:33:43;100352.78;;;9.89;73.64
46682;BME280;34101;53.430;-2.224;2023-04-28T00:36:11;100351.04;;;10.04;73.08
46682;BME280;34101;53.430;-2.224;2023-04-28T00:38:38;100351.57;;;10.17;72.53
46682;BME280;34101;53.430;-2.224;2023-04-28T00:41:05;100349.85;;;10.04;72.76
46682;BME280;34101;53.430;-2.224;2023-04-28T00:43:45;100342.14;;;9.99;72.86
46682;BME280;34101;53.430;-2.224;2023-04-28T00:46:17;100340.59;;;10.17;72.48
46682;BME280;34101;53.430;-2.224;2023-04-28T00:48:46;100338.66;;;10.15;72.27
46682;BME280;34101;53.430;-2.224;2023-04-28T00:51:14;100342.24;;;10.24;72.10
46682;BME280;34101;53.430;-2.224;2023-04-28T00:53:42;100344.04;;;10.27;71.81
46682;BME280;34101;53.430;-2.224;2023-04-28T00:56:09;100339.57;;;10.26;71.90
46682;BME280;34101;53.430;-2.224;2023-04-28T00:58:37;100336.75;;;10.25;71.92
46682;BME280;34101;53.430;-2.224;2023-04-28T01:01:05;100334.94;;;10.33;71.36
46682;BME280;34101;53.430;-2.224;2023-04-28T01:03:34;100332.88;;;10.24;71.82
46682;BME280;34101;53.430;-2.224;2023-04-28T01:06:02;100335.74;;;10.12;72.18
46682;BME280;34101;53.430;-2.224;2023-04-28T01:08:30;100329.13;;;10.16;71.91
46682;BME280;34101;53.430;-2.224;2023-04-28T01:10:57;100328.59;;;10.24;71.99
46682;BME280;34101;53.430;-2.224;2023-04-28T01:13:25;100331.09;;;10.28;71.80
46682;BME280;34101;53.430;-2.224;2023-04-28T01:15:52;100326.65;;;10.15;72.17
46682;BME280;34101;53.430;-2.224;2023-04-28T01:18:21;100325.93;;;10.31;71.89
46682;BME280;34101;53.430;-2.224;2023-04-28T01:20:48;100324.67;;;10.30;71.82
46682;BME280;34101;53.430;-2.224;2023-04-28T01:23:16;100325.63;;;10.34;71.89
46682;BME280;34101;53.430;-2.224;2023-04-28T01:25:43;100324.56;;;10.28;72.11
46682;BME280;34101;53.430;-2.224;2023-04-28T01:28:11;100323.44;;;10.23;72.07
46682;BME280;34101;53.430;-2.224;2023-04-28T01:30:38;100321.55;;;10.24;72.47
46682;BME280;34101;53.430;-2.224;2023-04-28T01:33:06;100322.31;;;10.36;72.28
46682;BME280;34101;53.430;-2.224;2023-04-28T01:35:33;100323.53;;;10.32;72.37
46682;BME280;34101;53.430;-2.224;2023-04-28T01:38:00;100322.25;;;10.32;72.28
46682;BME280;34101;53.430;-2.224;2023-04-28T01:40:29;100322.55;;;10.23;72.47
46682;BME280;34101;53.430;-2.224;2023-04-28T01:42:56;100319.81;;;10.40;72.02
46682;BME280;34101;53.430;-2.224;2023-04-28T01:45:24;100320.55;;;10.36;72.21
46682;BME280;34101;53.430;-2.224;2023-04-28T01:47:51;100323.45;;;10.40;72.36
46682;BME280;34101;53.430;-2.224;2023-04-28T01:50:19;100327.00;;;10.37;72.51
46682;BME280;34101;53.430;-2.224;2023-04-28T01:52:46;100323.93;;;10.26;73.21
46682;BME280;34101;53.430;-2.224;2023-04-28T01:55:14;100320.84;;;10.31;73.23
46682;BME280;34101;53.430;-2.224;2023-04-28T01:57:41;100319.80;;;10.27;73.36
46682;BME280;34101;53.430;-2.224;2023-04-28T02:00:09;100320.56;;;10.30;73.55
46682;BME280;34101;53.430;-2.224;2023-04-28T02:02:37;100320.00;;;10.30;73.56
46682;BME280;34101;53.430;-2.224;2023-04-28T02:05:05;100317.73;;;10.40;73.62
46682;BME280;34101;53.430;-2.224;2023-04-28T02:07:33;100314.64;;;10.49;73.56
46682;BME280;34101;53.430;-2.224;2023-04-28T02:10:00;100312.24;;;10.54;73.48
46682;BME280;34101;53.430;-2.224;2023-04-28T02:12:28;100315.76;;;10.63;73.45
46682;BME280;34101;53.430;-2.224;2023-04-28T02:14:55;100314.88;;;10.73;73.43
46682;BME280;34101;53.430;-2.224;2023-04-28T02:17:22;100311.82;;;10.79;72.97
46682;BME280;34101;53.430;-2.224;2023-04-28T02:19:54;100312.19;;;10.79;72.93
46682;BME280;34101;53.430;-2.224;2023-04-28T02:22:21;100310.30;;;10.84;73.05
46682;BME280;34101;53.430;-2.224;2023-04-28T02:24:48;100311.32;;;10.93;72.93
46682;BME280;34101;53.430;-2.224;2023-04-28T02:27:16;100309.77;;;10.96;72.66
46682;BME280;34101;53.430;-2.224;2023-04-28T02:29:44;100312.98;;;10.95;72.23
46682;BME280;34101;53.430;-2.224;2023-04-28T02:32:11;100314.76;;;11.00;72.32
46682;BME280;34101;53.430;-2.224;2023-04-28T02:34:38;100312.34;;;11.06;71.88
46682;BME280;34101;53.430;-2.224;2023-04-28T02:37:10;100311.84;;;11.09;71.81
46682;BME280;34101;53.430;-2.224;2023-04-28T02:39:37;100311.76;;;11.11;71.39
46682;BME280;34101;53.430;-2.224;2023-04-28T02:42:05;100309.11;;;11.14;71.19
46682;BME280;34101;53.430;-2.224;2023-04-28T02:44:32;100308.69;;;11.09;70.78
46682;BME280;34101;53.430;-2.224;2023-04-28T02:47:00;100308.32;;;11.09;70.63
46682;BME280;34101;53.430;-2.224;2023-04-28T02:49:28;100310.56;;;11.11;70.70
46682;BME280;34101;53.430;-2.224;2023-04-28T02:51:55;100312.63;;;11.16;70.61
46682;BME280;34101;53.430;-2.224;2023-04-28T02:54:22;100314.36;;;11.19;70.61
46682;BME280;34101;53.430;-2.224;2023-04-28T02:56:49;100314.06;;;11.21;70.26
46682;BME280;34101;53.430;-2.224;2023-04-28T02:59:17;100312.44;;;11.24;70.33
46682;BME280;34101;53.430;-2.224;2023-04-28T03:01:50;100310.38;;;11.28;70.40
46682;BME280;34101;53.430;-2.224;2023-04-28T03:04:17;100303.13;;;11.26;70.27
46682;BME280;34101;53.430;-2.224;2023-04-28T03:06:44;100304.12;;;11.19;70.43
46682;BME280;34101;53.430;-2.224;2023-04-28T03:09:13;100300.70;;;11.17;70.80
46682;BME280;34101;53.430;-2.224;2023-04-28T03:11:40;100297.81;;;11.17;71.33
46682;BME280;34101;53.430;-2.224;2023-04-28T03:14:08;100293.37;;;11.18;71.70
46682;BME280;34101;53.430;-2.224;2023-04-28T03:16:35;100290.86;;;11.20;71.98
46682;BME280;34101;53.430;-2.224;2023-04-28T03:19:02;100291.78;;;11.20;72.16
46682;BME280;34101;53.430;-2.224;2023-04-28T03:21:30;100286.64;;;11.22;72.53
46682;BME280;34101;53.430;-2.224;2023-04-28T03:23:57;100287.21;;;11.26;72.59
46682;BME280;34101;53.430;-2.224;2023-04-28T03:26:24;100289.97;;;11.28;72.42
46682;BME280;34101;53.430;-2.224;2023-04-28T03:28:52;100288.76;;;11.29;72.41
46682;BME280;34101;53.430;-2.224;2023-04-28T03:31:20;100289.39;;;11.29;72.36
46682;BME280;34101;53.430;-2.224;2023-04-28T03:33:47;100287.12;;;11.32;72.44
46682;BME280;34101;53.430;-2.224;2023-04-28T03:36:14;100289.52;;;11.35;72.32
46682;BME280;34101;53.430;-2.224;2023-04-28T03:38:42;100290.93;;;11.38;72.15
46682;BME280;34101;53.430;-2.224;2023-04-28T03:41:09;100290.10;;;11.38;71.94
46682;BME280;34101;53.430;-2.224;2023-04-28T03:43:37;100290.43;;;11.37;71.97
46682;BME280;34101;53.430;-2.224;2023-04-28T03:46:04;100289.27;;;11.39;72.01
46682;BME280;34101;53.430;-2.224;2023-04-28T03:48:37;100286.37;;;11.42;71.95
46682;BME280;34101;53.430;-2.224;2023-04-28T03:51:04;100289.42;;;11.42;71.80
46682;BME280;34101;53.430;-2.224;2023-04-28T03:53:31;100289.94;;;11.43;71.59
46682;BME280;34101;53.430;-2.224;2023-04-28T03:55:59;100287.97;;;11.45;71.63
46682;BME280;34101;53.430;-2.224;2023-04-28T03:58:26;100288.62;;;11.48;71.56
46682;BME280;34101;53.430;-2.224;2023-04-28T04:00:54;100291.90;;;11.50;71.47
46682;BME280;34101;53.430;-2.224;2023-04-28T04:03:21;100286.65;;;11.51;71.30
46682;BME280;34101;53.430;-2.224;2023-04-28T04:05:49;100287.55;;;11.54;71.32
46682;BME280;34101;53.430;-2.224;2023-04-28T04:08:16;100288.34;;;11.58;71.22
46682;BME280;34101;53.430;-2.224;2023-04-28T04:10:44;100281.21;;;11.59;70.98
46682;BME280;34101;53.430;-2.224;2023-04-28T04:13:11;100282.99;;;11.59;71.13
46682;BME280;34101;53.430;-2.224;2023-04-28T04:15:39;100285.35;;;11.62;71.10
46682;BME280;34101;53.430;-2.224;2023-04-28T04:18:06;100289.79;;;11.64;70.98
46682;BME280;34101;53.430;-2.224;2023-04-28T04:20:33;100294.63;;;11.66;70.88
46682;BME280;34101;53.430;-2.224;2023-04-28T04:23:01;100294.53;;;11.69;70.56
46682;BME280;34101;53.430;-2.224;2023-04-28T04:25:30;100294.79;;;11.71;70.51
46682;BME280;34101;53.430;-2.224;2023-04-28T04:27:57;100296.85;;;11.74;70.28
46682;BME280;34101;53.430;-2.224;2023-04-28T04:30:24;100298.22;;;11.74;70.35
46682;BME280;34101;53.430;-2.224;2023-04-28T04:32:52;100300.41;;;11.74;70.19
46682;BME280;34101;53.430;-2.224;2023-04-28T04:35:19;100306.30;;;11.76;70.27
46682;BME280;34101;53.430;-2.224;2023-04-28T04:37:46;100310.46;;;11.76;70.13
46682;BME280;34101;53.430;-2.224;2023-04-28T04:40:14;100314.31;;;11.77;70.48
46682;BME280;34101;53.430;-2.224;2023-04-28T04:42:41;100315.79;;;11.80;70.18
46682;BME280;34101;53.430;-2.224;2023-04-28T04:45:09;100317.39;;;11.81;70.02
46682;BME280;34101;53.430;-2.224;2023-04-28T04:47:36;100312.18;;;11.81;69.81
46682;BME280;34101;53.430;-2.224;2023-04-28T04:50:05;100312.63;;;11.81;69.93
46682;BME280;34101;53.430;-2.224;2023-04-28T04:52:32;100310.20;;;11.81;69.99
46682;BME280;34101;53.430;-2.224;2023-04-28T04:55:00;100313.99;;;11.81;69.83
46682;BME280;34101;53.430;-2.224;2023-04-28T04:57:28;100317.51;;;11.81;69.57
46682;BME280;34101;53.430;-2.224;2023-04-28T04:59:54;100319.52;;;11.80;69.74
46682;BME280;34101;53.430;-2.224;2023-04-28T05:02:22;100326.16;;;11.83;69.46
46682;BME280;34101;53.430;-2.224;2023-04-28T05:04:49;100330.45;;;11.81;69.51
46682;BME280;34101;53.430;-2.224;2023-04-28T05:07:17;100333.02;;;11.79;69.31
46682;BME280;34101;53.430;-2.224;2023-04-28T05:09:44;100338.88;;;11.80;69.34
46682;BME280;34101;53.430;-2.224;2023-04-28T05:12:12;100343.26;;;11.79;69.22
46682;BME280;34101;53.430;-2.224;2023-04-28T05:14:39;100346.95;;;11.81;69.21
46682;BME280;34101;53.430;-2.224;2023-04-28T05:17:07;100351.82;;;11.84;69.21
46682;BME280;34101;53.430;-2.224;2023-04-28T05:19:34;100351.21;;;11.86;69.19
46682;BME280;34101;53.430;-2.224;2023-04-28T05:22:02;100350.90;;;11.85;69.27
46682;BME280;34101;53.430;-2.224;2023-04-28T05:24:29;100353.47;;;11.87;69.34
46682;BME280;34101;53.430;-2.224;2023-04-28T05:26:58;100352.42;;;11.88;69.18
46682;BME280;34101;53.430;-2.224;2023-04-28T05:29:25;100350.73;;;11.85;69.42
46682;BME280;34101;53.430;-2.224;2023-04-28T05:31:52;100356.74;;;11.82;69.53
46682;BME280;34101;53.430;-2.224;2023-04-28T05:34:25;100364.66;;;11.76;69.45
46682;BME280;34101;53.430;-2.224;2023-04-28T05:36:52;100369.44;;;11.71;69.58
46682;BME280;34101;53.430;-2.224;2023-04-28T05:39:20;100379.16;;;11.70;69.81
46682;BME280;34101;53.430;-2.224;2023-04-28T05:41:47;100380.67;;;11.74;70.06
46682;BME280;34101;53.430;-2.224;2023-04-28T05:44:15;100381.24;;;11.77;70.00
46682;BME280;34101;53.430;-2.224;2023-04-28T05:46:42;100380.18;;;11.79;70.24
46682;BME280;34101;53.430;-2.224;2023-04-28T05:49:10;100381.97;;;11.84;70.45
46682;BME280;34101;53.430;-2.224;2023-04-28T05:51:37;100385.50;;;11.90;70.40
46682;BME280;34101;53.430;-2.224;2023-04-28T05:54:04;100387.58;;;11.94;70.29
46682;BME280;34101;53.430;-2.224;2023-04-28T05:56:32;100387.52;;;11.93;70.14
46682;BME280;34101;53.430;-2.224;2023-04-28T05:58:59;100386.75;;;11.92;70.49
46682;BME280;34101;53.430;-2.224;2023-04-28T06:01:26;100391.05;;;11.95;70.52
46682;BME280;34101;53.430;-2.224;2023-04-28T06:03:54;100388.00;;;11.96;70.39
46682;BME280;34101;53.430;-2.224;2023-04-28T06:06:21;100388.49;;;11.97;70.41
46682;BME280;34101;53.430;-2.224;2023-04-28T06:08:49;100386.07;;;12.00;70.44
46682;BME280;34101;53.430;-2.224;2023-04-28T06:11:17;100388.77;;;12.03;70.43
46682;BME280;34101;53.430;-2.224;2023-04-28T06:13:43;100388.60;;;12.02;70.61
46682;BME280;34101;53.430;-2.224;2023-04-28T06:16:11;100387.08;;;12.04;70.55
46682;BME280;34101;53.430;-2.224;2023-04-28T06:18:38;100380.63;;;12.05;70.77
46682;BME280;34101;53.430;-2.224;2023-04-28T06:21:05;100381.74;;;12.04;70.88
46682;BME280;34101;53.430;-2.224;2023-04-28T06:23:33;100388.19;;;12.04;70.98
46682;BME280;34101;53.430;-2.224;2023-04-28T06:26:00;100391.03;;;12.05;71.03
46682;BME280;34101;53.430;-2.224;2023-04-28T06:28:32;100391.49;;;12.08;71.09
46682;BME280;34101;53.430;-2.224;2023-04-28T06:31:00;100400.31;;;12.04;71.16
46682;BME280;34101;53.430;-2.224;2023-04-28T06:33:28;100403.50;;;12.07;71.13
46682;BME280;34101;53.430;-2.224;2023-04-28T06:35:55;100401.61;;;12.08;71.02
46682;BME280;34101;53.430;-2.224;2023-04-28T06:38:22;100412.32;;;12.11;71.21
46682;BME280;34101;53.430;-2.224;2023-04-28T06:40:50;100416.59;;;12.15;70.88
46682;BME280;34101;53.430;-2.224;2023-04-28T06:43:17;100418.87;;;12.16;70.75
46682;BME280;34101;53.430;-2.224;2023-04-28T06:45:44;100424.62;;;12.16;70.74
46682;BME280;34101;53.430;-2.224;2023-04-28T06:48:11;100431.58;;;12.22;70.69
46682;BME280;34101;53.430;-2.224;2023-04-28T06:50:38;100430.57;;;12.24;70.44
46682;BME280;34101;53.430;-2.224;2023-04-28T06:53:06;100429.11;;;12.24;70.25
46682;BME280;34101;53.430;-2.224;2023-04-28T06:55:33;100435.64;;;12.26;70.44
46682;BME280;34101;53.430;-2.224;2023-04-28T06:58:01;100437.87;;;12.31;70.50
46682;BME280;34101;53.430;-2.224;2023-04-28T07:00:29;100440.64;;;12.34;70.29
46682;BME280;34101;53.430;-2.224;2023-04-28T07:02:57;100445.54;;;12.39;70.16
46682;BME280;34101;53.430;-2.224;2023-04-28T07:05:24;100438.16;;;12.41;70.09
46682;BME280;34101;53.430;-2.224;2023-04-28T07:07:51;100436.95;;;12.46;69.87
46682;BME280;34101;53.430;-2.224;2023-04-28T07:10:19;100439.47;;;12.48;69.77
46682;BME280;34101;53.430;-2.224;2023-04-28T07:12:48;100446.58;;;12.53;69.77
46682;BME280;34101;53.430;-2.224;2023-04-28T07:15:16;100447.61;;;12.54;69.53
46682;BME280;34101;53.430;-2.224;2023-04-28T07:17:43;100448.82;;;12.55;69.45
46682;BME280;34101;53.430;-2.224;2023-04-28T07:20:11;100446.87;;;12.58;69.28
46682;BME280;34101;53.430;-2.224;2023-04-28T07:22:39;100451.69;;;12.65;69.32
46682;BME280;34101;53.430;-2.224;2023-04-28T07:25:07;100458.26;;;12.72;69.11
46682;BME280;34101;53.430;-2.224;2023-04-28T07:27:35;100463.94;;;12.76;68.97
46682;BME280;34101;53.430;-2.224;2023-04-28T07:30:02;100467.40;;;12.77;68.81
46682;BME280;34101;53.430;-2.224;2023-04-28T07:32:30;100471.64;;;12.77;68.83
46682;BME280;34101;53.430;-2.224;2023-04-28T07:34:58;100477.95;;;12.81;68.74
46682;BME280;34101;53.430;-2.224;2023-04-28T07:37:30;100482.66;;;12.81;68.67
46682;BME280;34101;53.430;-2.224;2023-04-28T07:39:57;100486.28;;;12.80;68.51
46682;BME280;34101;53.430;-2.224;2023-04-28T07:42:24;100488.97;;;12.78;68.66
46682;BME280;34101;53.430;-2.224;2023-04-28T07:44:52;100491.70;;;12.82;68.29
46682;BME280;34101;53.430;-2.224;2023-04-28T07:47:19;100498.23;;;12.79;68.37
46682;BME280;34101;53.430;-2.224;2023-04-28T07:49:47;100505.56;;;12.81;68.61
46682;BME280;34101;53.430;-2.224;2023-04-28T07:52:14;100505.78;;;12.83;68.52
46682;BME280;34101;53.430;-2.224;2023-04-28T07:54:41;100511.79;;;12.85;68.62
46682;BME280;34101;53.430;-2.224;2023-04-28T07:57:14;100513.00;;;12.87;68.77
46682;BME280;34101;53.430;-2.224;2023-04-28T07:59:41;100519.78;;;12.92;68.62
46682;BME280;34101;53.430;-2.224;2023-04-28T08:02:08;100523.85;;;12.99;68.41
46682;BME280;34101;53.430;-2.224;2023-04-28T08:04:35;100527.04;;;12.98;67.99
46682;BME280;34101;53.430;-2.224;2023-04-28T08:07:03;100531.28;;;13.01;68.17
46682;BME280;34101;53.430;-2.224;2023-04-28T08:09:30;100535.87;;;13.03;67.99
46682;BME280;34101;53.430;-2.224;2023-04-28T08:11:57;100537.04;;;12.85;68.20
46682;BME280;34101;53.430;-2.224;2023-04-28T08:14:25;100540.17;;;12.87;68.39
46682;BME280;34101;53.430;-2.224;2023-04-28T08:16:52;100543.90;;;12.92;68.35
46682;BME280;34101;53.430;-2.224;2023-04-28T08:19:20;100547.70;;;12.85;68.73
46682;BME280;34101;53.430;-2.224;2023-04-28T08:21:46;100553.80;;;12.84;69.09
46682;BME280;34101;53.430;-2.224;2023-04-28T08:24:14;100558.93;;;12.79;69.61
46682;BME280;34101;53.430;-2.224;2023-04-28T08:26:41;100554.34;;;12.87;69.55
46682;BME280;34101;53.430;-2.224;2023-04-28T08:29:08;100554.32;;;13.04;68.85
46682;BME280;34101;53.430;-2.224;2023-04-28T08:31:35;100556.21;;;13.16;68.54
46682;BME280;34101;53.430;-2.224;2023-04-28T08:34:02;100558.17;;;13.07;68.29
46682;BME280;34101;53.430;-2.224;2023-04-28T08:36:30;100559.73;;;13.21;68.17
46682;BME280;34101;53.430;-2.224;2023-04-28T08:38:59;100566.66;;;13.26;67.89
46682;BME280;34101;53.430;-2.224;2023-04-28T08:41:26;100569.28;;;13.32;67.59
46682;BME280;34101;53.430;-2.224;2023-04-28T08:43:53;100570.93;;;13.33;67.67
46682;BME280;34101;53.430;-2.224;2023-04-28T08:46:21;100571.01;;;13.34;68.14
46682;BME280;34101;53.430;-2.224;2023-04-28T08:48:51;100572.76;;;13.48;67.71
46682;BME280;34101;53.430;-2.224;2023-04-28T08:51:26;100577.70;;;13.60;67.28
46682;BME280;34101;53.430;-2.224;2023-04-28T08:53:59;100578.70;;;13.69;66.06
46682;BME280;34101;53.430;-2.224;2023-04-28T08:56:31;100581.10;;;13.65;66.72
46682;BME280;34101;53.430;-2.224;2023-04-28T08:59:01;100584.95;;;13.43;67.19
46682;BME280;34101;53.430;-2.224;2023-04-28T09:01:29;100584.31;;;13.48;67.42
46682;BME280;34101;53.430;-2.224;2023-04-28T09:04:01;100589.41;;;13.53;67.84
46682;BME280;34101;53.430;-2.224;2023-04-28T09:06:32;100593.31;;;13.68;67.06
46682;BME280;34101;53.430;-2.224;2023-04-28T09:09:17;100599.31;;;13.82;66.55
46682;BME280;34101;53.430;-2.224;2023-04-28T09:11:51;100605.12;;;13.81;65.92
46682;BME280;34101;53.430;-2.224;2023-04-28T09:14:18;100607.41;;;13.81;66.33
46682;BME280;34101;53.430;-2.224;2023-04-28T09:16:46;100610.11;;;13.81;65.58
46682;BME280;34101;53.430;-2.224;2023-04-28T09:19:14;100616.74;;;13.77;66.11
46682;BME280;34101;53.430;-2.224;2023-04-28T09:21:51;100617.78;;;13.82;66.24
46682;BME280;34101;53.430;-2.224;2023-04-28T09:24:29;100622.21;;;13.88;65.83
46682;BME280;34101;53.430;-2.224;2023-04-28T09:26:57;100627.71;;;13.81;66.02
46682;BME280;34101;53.430;-2.224;2023-04-28T09:29:24;100624.34;;;13.88;65.90
46682;BME280;34101;53.430;-2.224;2023-04-28T09:31:52;100628.10;;;13.77;65.72
46682;BME280;34101;53.430;-2.224;2023-04-28T09:34:20;100632.82;;;13.75;66.34
46682;BME280;34101;53.430;-2.224;2023-04-28T09:36:47;100636.16;;;13.83;66.16
46682;BME280;34101;53.430;-2.224;2023-04-28T09:39:29;100636.61;;;13.82;65.94
46682;BME280;34101;53.430;-2.224;2023-04-28T09:41:56;100636.17;;;13.89;66.10
46682;BME280;34101;53.430;-2.224;2023-04-28T09:44:23;100638.82;;;14.00;65.78
46682;BME280;34101;53.430;-2.224;2023-04-28T09:46:50;100638.93;;;14.05;64.91
46682;BME280;34101;53.430;-2.224;2023-04-28T09:49:18;100644.55;;;14.06;65.36
46682;BME280;34101;53.430;-2.224;2023-04-28T09:51:45;100648.28;;;14.05;65.40
46682;BME280;34101;53.430;-2.224;2023-04-28T09:54:12;100652.95;;;14.03;65.46
46682;BME280;34101;53.430;-2.224;2023-04-28T09:56:40;100656.57;;;14.02;65.50
46682;BME280;34101;53.430;-2.224;2023-04-28T09:59:09;100661.99;;;14.00;65.74
46682;BME280;34101;53.430;-2.224;2023-04-28T10:01:39;100665.01;;;13.88;66.16
46682;BME280;34101;53.430;-2.224;2023-04-28T10:04:07;100670.01;;;13.94;66.01
46682;BME280;34101;53.430;-2.224;2023-04-28T10:06:35;100676.44;;;13.70;66.87
46682;BME280;34101;53.430;-2.224;2023-04-28T10:09:02;100686.19;;;13.56;67.15
46682;BME280;34101;53.430;-2.224;2023-04-28T10:11:32;100690.69;;;13.52;67.79
46682;BME280;34101;53.430;-2.224;2023-04-28T10:13:59;100688.46;;;13.28;67.93
46682;BME280;34101;53.430;-2.224;2023-04-28T10:16:30;100691.53;;;13.46;67.62
46682;BME280;34101;53.430;-2.224;2023-04-28T10:18:57;100694.55;;;13.44;67.75
46682;BME280;34101;53.430;-2.224;2023-04-28T10:21:26;100699.39;;;13.47;67.56
46682;BME280;34101;53.430;-2.224;2023-04-28T10:24:08;100703.77;;;13.44;67.63
46682;BME280;34101;53.430;-2.224;2023-04-28T10:27:11;100706.87;;;13.40;67.56
46682;BME280;34101;53.430;-2.224;2023-04-28T10:29:39;100709.56;;;13.44;67.43
46682;BME280;34101;53.430;-2.224;2023-04-28T10:32:16;100714.43;;;13.34;68.29
46682;BME280;34101;53.430;-2.224;2023-04-28T10:34:44;100716.35;;;13.40;67.73
46682;BME280;34101;53.430;-2.224;2023-04-28T10:37:11;100718.61;;;13.45;67.29
46682;BME280;34101;53.430;-2.224;2023-04-28T10:39:39;100723.49;;;13.54;67.44
46682;BME280;34101;53.430;-2.224;2023-04-28T10:42:50;100726.33;;;13.66;67.14
46682;BME280;34101;53.430;-2.224;2023-04-28T10:45:58;100728.27;;;13.71;66.72
46682;BME280;34101;53.430;-2.224;2023-04-28T10:48:55;100733.79;;;13.65;66.88
46682;BME280;34101;53.430;-2.224;2023-04-28T10:51:31;100734.50;;;13.47;67.84
46682;BME280;34101;53.430;-2.224;2023-04-28T10:54:16;100738.50;;;13.52;67.42
46682;BME280;34101;53.430;-2.224;2023-04-28T10:57:17;100738.61;;;13.69;66.55
46682;BME280;34101;53.430;-2.224;2023-04-28T10:59:44;100739.73;;;13.52;67.00
46682;BME280;34101;53.430;-2.224;2023-04-28T11:02:45;100746.91;;;13.80;66.94
46682;BME280;34101;53.430;-2.224;2023-04-28T11:05:13;100749.13;;;13.75;65.61
46682;BME280;34101;53.430;-2.224;2023-04-28T11:07:40;100751.47;;;13.85;65.83
46682;BME280;34101;53.430;-2.224;2023-04-28T11:11:30;100754.46;;;14.00;65.79
46682;BME280;34101;53.430;-2.224;2023-04-28T11:14:30;100753.92;;;14.00;65.44
46682;BME280;34101;53.430;-2.224;2023-04-28T11:16:59;100755.95;;;14.04;65.42
46682;BME280;34101;53.430;-2.224;2023-04-28T11:19:29;100756.19;;;14.07;65.22
46682;BME280;34101;53.430;-2.224;2023-04-28T11:21:58;100757.33;;;13.99;65.53
46682;BME280;34101;53.430;-2.224;2023-04-28T11:24:27;100756.69;;;14.19;65.06
46682;BME280;34101;53.430;-2.224;2023-04-28T11:26:56;100758.14;;;14.18;64.72
46682;BME280;34101;53.430;-2.224;2023-04-28T11:29:31;100757.19;;;14.38;65.03
46682;BME280;34101;53.430;-2.224;2023-04-28T11:31:58;100762.59;;;14.32;64.39
46682;BME280;34101;53.430;-2.224;2023-04-28T11:34:26;100763.50;;;14.59;63.68
46682;BME280;34101;53.430;-2.224;2023-04-28T11:36:53;100767.14;;;14.58;63.87
46682;BME280;34101;53.430;-2.224;2023-04-28T11:39:25;100771.36;;;14.63;63.33
46682;BME280;34101;53.430;-2.224;2023-04-28T11:41:54;100774.23;;;14.40;63.63
46682;BME280;34101;53.430;-2.224;2023-04-28T11:44:23;100773.84;;;14.79;62.71
46682;BME280;34101;53.430;-2.224;2023-04-28T11:46:51;100775.51;;;14.97;61.45
46682;BME280;34101;53.430;-2.224;2023-04-28T11:49:19;100782.19;;;15.04;60.52
46682;BME280;34101;53.430;-2.224;2023-04-28T11:51:47;100785.39;;;14.94;61.28
46682;BME280;34101;53.430;-2.224;2023-04-28T11:54:20;100786.55;;;15.07;60.52
46682;BME280;34101;53.430;-2.224;2023-04-28T11:56:47;100790.43;;;15.23;60.89
46682;BME280;34101;53.430;-2.224;2023-04-28T11:59:14;100792.51;;;15.13;60.55
46682;BME280;34101;53.430;-2.224;2023-04-28T12:01:45;100800.15;;;15.05;61.36
46682;BME280;34101;53.430;-2.224;2023-04-28T12:04:13;100804.64;;;15.23;60.49
46682;BME280;34101;53.430;-2.224;2023-04-28T12:06:41;100809.84;;;15.23;60.16
46682;BME280;34101;53.430;-2.224;2023-04-28T12:09:16;100814.73;;;15.27;59.93
46682;BME280;34101;53.430;-2.224;2023-04-28T12:11:52;100820.48;;;15.21;60.39
46682;BME280;34101;53.430;-2.224;2023-04-28T12:14:19;100826.44;;;15.19;59.99
46682;BME280;34101;53.430;-2.224;2023-04-28T12:16:47;100833.28;;;14.92;60.84
46682;BME280;34101;53.430;-2.224;2023-04-28T12:19:15;100834.73;;;14.91;60.80
46682;BME280;34101;53.430;-2.224;2023-04-28T12:21:42;100835.07;;;14.74;61.02
46682;BME280;34101;53.430;-2.224;2023-04-28T12:24:15;100837.45;;;14.75;61.19
46682;BME280;34101;53.430;-2.224;2023-04-28T12:26:43;100841.23;;;14.84;60.92
46682;BME280;34101;53.430;-2.224;2023-04-28T12:29:34;100846.59;;;14.78;61.42
46682;BME280;34101;53.430;-2.224;2023-04-28T12:32:02;100853.67;;;14.65;62.03
46682;BME280;34101;53.430;-2.224;2023-04-28T12:34:30;100853.47;;;14.80;61.06
46682;BME280;34101;53.430;-2.224;2023-04-28T12:36:58;100857.93;;;14.64;61.39
46682;BME280;34101;53.430;-2.224;2023-04-28T12:39:25;100859.52;;;14.69;61.52
46682;BME280;34101;53.430;-2.224;2023-04-28T12:41:53;100865.68;;;14.75;61.71
46682;BME280;34101;53.430;-2.224;2023-04-28T12:44:21;100866.70;;;14.89;61.45
46682;BME280;34101;53.430;-2.224;2023-04-28T12:46:48;100870.74;;;14.95;61.18
46682;BME280;34101;53.430;-2.224;2023-04-28T12:49:15;100875.45;;;14.83;61.53
46682;BME280;34101;53.430;-2.224;2023-04-28T12:51:42;100879.95;;;14.91;60.98